Nickajack Observed Data For Previous 48 Hours

Caption
Day and Hour Reservoir Elevation (behind dam)* Tailwater Elevation (below dam)* Average Hourly Discharge*
11/11/2018 1 AM CST 632.46 600.01 58,740
11/11/2018 2 AM CST 632.48 599.94 58,817
11/11/2018 3 AM CST 632.50 599.88 58,727
11/11/2018 4 AM CST 632.52 599.83 58,614
11/11/2018 5 AM CST 632.54 599.80 58,638
11/11/2018 6 AM CST 632.56 599.79 58,678
11/11/2018 7 AM CST 632.52 599.91 59,364
11/11/2018 8 AM CST 632.56 600.11 64,784
11/11/2018 9 AM CST 632.57 600.18 64,675
11/11/2018 10 AM CST 632.58 600.24 64,710
11/11/2018 11 AM CST 632.58 600.27 64,737
11/11/2018 12 PM CST 632.54 600.26 64,709
11/11/2018 1 PM CST 632.57 600.29 64,722
11/11/2018 2 PM CST 632.46 600.30 64,731
11/11/2018 3 PM CST 632.46 600.30 64,702
11/11/2018 4 PM CST 632.41 600.29 64,724
11/11/2018 5 PM CST 632.36 600.28 64,662
11/11/2018 6 PM CST 632.45 599.76 55,607
11/11/2018 7 PM CST 632.49 599.61 55,329
11/11/2018 8 PM CST 632.54 599.53 55,147
11/11/2018 9 PM CST 632.58 599.48 55,203
11/11/2018 10 PM CST 632.62 599.43 55,296
11/11/2018 11 PM CST 632.65 599.40 55,305
11/12/2018 12 AM CST 632.64 599.38 55,360
11/12/2018 1 AM CST 632.58 599.36 55,339
11/12/2018 2 AM CST 632.49 599.35 55,239
11/12/2018 3 AM CST 632.43 599.33 55,191
11/12/2018 4 AM CST 632.38 599.32 55,201
11/12/2018 5 AM CST 632.31 599.31 55,244
11/12/2018 6 AM CST 632.27 599.29 55,411
11/12/2018 7 AM CST 632.29 599.31 55,544
11/12/2018 8 AM CST 632.45 599.30 55,448
11/12/2018 9 AM CST 632.55 599.30 55,540
11/12/2018 10 AM CST 632.65 599.33 55,694
11/12/2018 11 AM CST 632.70 599.39 55,816
11/12/2018 12 PM CST 632.74 599.87 65,155
11/12/2018 1 PM CST 632.82 600.03 64,979
11/12/2018 2 PM CST 632.90 600.12 65,031
11/12/2018 3 PM CST 632.92 600.17 65,049
11/12/2018 4 PM CST 632.95 600.23 64,989
11/12/2018 5 PM CST 633.00 600.36 65,041
11/12/2018 6 PM CST 633.02 600.53 66,231
11/12/2018 7 PM CST 633.09 600.75 71,164
11/12/2018 8 PM CST 633.12 600.84 71,225
11/12/2018 9 PM CST 633.13 600.93 71,071
11/12/2018 10 PM CST 633.01 601.35 75,942
11/12/2018 11 PM CST 632.92 601.23 76,619
11/13/2018 12 AM CST 632.89 600.78 64,019
11/13/2018 1 AM CST 632.91 600.63 63,573
11/13/2018 2 AM CST 632.91 600.57 63,543
11/13/2018 3 AM CST 632.88 600.53 63,583
11/13/2018 4 AM CST 632.87 600.50 63,469
11/13/2018 5 AM CST 632.85 600.47 63,323
11/13/2018 6 AM CST 632.85 600.46 63,283
11/13/2018 7 AM CST 632.98 600.46 63,465
11/13/2018 8 AM CST 633.06 600.84 68,643
11/13/2018 9 AM CST 633.00 601.48 78,852

Elevations are in feet above sea level. Discharges are in cubic feet per second and are reported at the end of the hour.